Time;durP1;ratioP1;P1;durP2;ratioP2;P2;SDS_P1;SDS_P2;PMS_P1;PMS_P2;Temp;Humidity;BMP_temperature;BMP_pressure;BME280_temperature;BME280_humidity;BME280_pressure;Samples;Min_cycle;Max_cycle;Signal;HPM_P1;HPM_P2
2022/09/09 00:02:21;;;;;;;1.20;1.20;;;;;;;;;;5004083;28;20279;-73
2022/09/09 00:05:08;;;;;;;1.60;1.60;;;;;;;;;;4985949;28;20256;-73
2022/09/09 00:07:34;;;;;;;1.50;1.50;;;;;;;;;;4980566;28;20706;-73
2022/09/09 00:10:00;;;;;;;1.60;1.60;;;;;;;;;;4989258;28;20308;-72
2022/09/09 00:12:41;;;;;;;1.80;1.70;;;;;;;;;;5018069;28;20271;-73
2022/09/09 00:15:34;;;;;;;1.60;1.60;;;;;;;;;;4984369;28;20256;-72
2022/09/09 00:18:18;;;;;;;1.37;1.37;;;;;;;;;;4988319;28;20248;-73
2022/09/09 00:20:50;;;;;;;1.20;1.20;;;;;;;;;;4988070;28;20232;-74
2022/09/09 00:23:26;;;;;;;1.30;1.30;;;;;;;;;;4984463;28;20217;-73
2022/09/09 00:25:58;;;;;;;1.57;1.57;;;;;;;;;;4993271;28;20228;-73
2022/09/09 00:28:25;;;;;;;1.30;1.30;;;;;;;;;;4989863;28;20624;-73
2022/09/09 00:30:51;;;;;;;1.50;1.50;;;;;;;;;;4986296;28;20232;-72
2022/09/09 00:33:20;;;;;;;1.60;1.60;;;;;;;;;;5000787;28;20220;-73
2022/09/09 00:35:50;;;;;;;1.30;1.30;;;;;;;;;;4978134;28;20224;-73
2022/09/09 00:38:29;;;;;;;1.30;1.30;;;;;;;;;;4984651;28;20372;-73
2022/09/09 00:41:14;;;;;;;1.50;1.50;;;;;;;;;;4983463;28;20229;-73
2022/09/09 00:43:40;;;;;;;1.30;1.30;;;;;;;;;;4988292;28;20310;-73
2022/09/09 00:46:15;;;;;;;1.20;1.20;;;;;;;;;;4982311;28;20264;-73
2022/09/09 00:48:46;;;;;;;1.20;1.20;;;;;;;;;;4987547;28;20201;-73
2022/09/09 00:51:16;;;;;;;1.40;1.40;;;;;;;;;;4990090;28;20677;-72
2022/09/09 00:53:51;;;;;;;1.33;1.33;;;;;;;;;;4996794;28;20262;-72
2022/09/09 00:56:21;;;;;;;1.40;1.40;;;;;;;;;;4987151;28;20219;-74
2022/09/09 00:58:51;;;;;;;1.10;1.10;;;;;;;;;;5013090;28;20257;-73
2022/09/09 01:01:17;;;;;;;1.27;1.27;;;;;;;;;;4988134;28;20223;-73
2022/09/09 01:03:47;;;;;;;1.10;1.10;;;;;;;;;;5018213;28;20712;-74
2022/09/09 01:06:22;;;;;;;1.23;1.23;;;;;;;;;;5019582;28;20226;-73
2022/09/09 01:08:54;;;;;;;1.20;1.20;;;;;;;;;;5007864;28;20219;-73
2022/09/09 01:11:21;;;;;;;1.20;1.20;;;;;;;;;;5022079;28;20236;-73
2022/09/09 01:13:47;;;;;;;1.20;1.20;;;;;;;;;;5016423;28;20228;-73
2022/09/09 01:16:13;;;;;;;1.20;1.20;;;;;;;;;;5017501;28;20234;-72
2022/09/09 01:18:46;;;;;;;1.30;1.30;;;;;;;;;;5005345;28;20259;-73
2022/09/09 01:21:22;;;;;;;1.20;1.20;;;;;;;;;;5016354;28;20803;-72
2022/09/09 01:24:01;;;;;;;1.10;1.10;;;;;;;;;;5010996;28;20430;-72
2022/09/09 01:26:27;;;;;;;1.10;1.10;;;;;;;;;;5003958;28;20412;-72
2022/09/09 01:28:53;;;;;;;1.10;1.10;;;;;;;;;;5005442;28;20776;-73
2022/09/09 01:31:24;;;;;;;1.23;1.23;;;;;;;;;;5011903;28;20346;-72
2022/09/09 01:33:49;;;;;;;1.10;1.10;;;;;;;;;;5009136;28;20230;-73
2022/09/09 01:36:18;;;;;;;1.00;1.00;;;;;;;;;;5011556;28;20224;-73
2022/09/09 01:38:44;;;;;;;1.10;1.10;;;;;;;;;;5007535;28;20233;-73
2022/09/09 01:41:10;;;;;;;1.10;1.10;;;;;;;;;;5019829;28;20739;-73
2022/09/09 01:43:36;;;;;;;1.33;1.33;;;;;;;;;;5018855;28;20228;-72
2022/09/09 01:46:02;;;;;;;1.13;1.13;;;;;;;;;;5016798;28;20237;-72
2022/09/09 01:48:28;;;;;;;1.30;1.30;;;;;;;;;;5022700;28;20306;-73
2022/09/09 01:50:54;;;;;;;1.30;1.30;;;;;;;;;;5006811;28;20975;-73
2022/09/09 01:53:21;;;;;;;1.10;1.10;;;;;;;;;;5017636;28;20228;-73
2022/09/09 01:55:59;;;;;;;1.10;1.10;;;;;;;;;;5006007;28;20232;-72
2022/09/09 01:58:31;;;;;;;1.20;1.20;;;;;;;;;;5016937;28;20235;-73
2022/09/09 02:01:06;;;;;;;1.10;1.10;;;;;;;;;;5015693;28;20208;-72
2022/09/09 02:03:35;;;;;;;1.17;1.17;;;;;;;;;;4986107;28;20240;-73
2022/09/09 02:06:05;;;;;;;1.10;1.10;;;;;;;;;;4995980;28;21948;-73
2022/09/09 02:08:31;;;;;;;1.10;1.10;;;;;;;;;;4998468;28;20229;-73
2022/09/09 02:11:00;;;;;;;1.20;1.20;;;;;;;;;;4990956;28;20864;-74
2022/09/09 02:13:26;;;;;;;1.30;1.30;;;;;;;;;;4999944;28;20220;-73
2022/09/09 02:16:00;;;;;;;1.13;1.13;;;;;;;;;;4995767;28;20629;-73
2022/09/09 02:18:31;;;;;;;1.20;1.20;;;;;;;;;;5001766;28;20236;-73
2022/09/09 02:20:57;;;;;;;1.10;1.10;;;;;;;;;;4993253;28;20211;-73
2022/09/09 02:23:23;;;;;;;1.10;1.10;;;;;;;;;;5003175;28;20689;-73
2022/09/09 02:25:51;;;;;;;1.10;1.10;;;;;;;;;;5012750;28;20224;-72
2022/09/09 02:28:17;;;;;;;1.20;1.20;;;;;;;;;;4985503;28;26587;-74
2022/09/09 02:30:43;;;;;;;1.40;1.40;;;;;;;;;;4995176;28;20759;-73
2022/09/09 02:33:10;;;;;;;1.27;1.27;;;;;;;;;;5012736;28;20347;-72
2022/09/09 02:35:37;;;;;;;1.30;1.30;;;;;;;;;;4991728;28;20228;-73
2022/09/09 02:38:04;;;;;;;1.20;1.20;;;;;;;;;;5000625;28;20248;-73
2022/09/09 02:40:30;;;;;;;1.30;1.30;;;;;;;;;;4981340;28;20232;-74
2022/09/09 02:42:56;;;;;;;1.17;1.17;;;;;;;;;;4987628;28;20230;-73
2022/09/09 02:45:25;;;;;;;1.37;1.37;;;;;;;;;;5000683;28;20713;-73
2022/09/09 02:48:12;;;;;;;1.27;1.27;;;;;;;;;;5004722;28;20231;-73
2022/09/09 02:50:44;;;;;;;1.53;1.53;;;;;;;;;;4981874;28;20310;-72
2022/09/09 02:53:17;;;;;;;1.40;1.40;;;;;;;;;;4997355;28;20217;-73
2022/09/09 02:55:46;;;;;;;1.43;1.43;;;;;;;;;;4995455;28;20229;-74
2022/09/09 02:58:12;;;;;;;1.13;1.13;;;;;;;;;;4993131;28;20236;-74
2022/09/09 03:00:39;;;;;;;1.40;1.40;;;;;;;;;;4986146;28;20226;-72
2022/09/09 03:03:05;;;;;;;1.57;1.57;;;;;;;;;;4999042;28;20238;-72
2022/09/09 03:05:31;;;;;;;1.10;1.10;;;;;;;;;;4994198;28;20268;-72
2022/09/09 03:07:57;;;;;;;1.20;1.20;;;;;;;;;;4976500;28;20229;-73
2022/09/09 03:10:23;;;;;;;1.20;1.20;;;;;;;;;;4987768;28;20243;-73
2022/09/09 03:12:50;;;;;;;1.20;1.20;;;;;;;;;;4985645;28;20666;-73
2022/09/09 03:15:16;;;;;;;1.20;1.20;;;;;;;;;;4996406;28;20882;-74
2022/09/09 03:17:42;;;;;;;1.23;1.23;;;;;;;;;;4990456;28;20225;-73
2022/09/09 03:20:08;;;;;;;1.40;1.40;;;;;;;;;;5009429;28;20506;-73
2022/09/09 03:22:34;;;;;;;1.30;1.30;;;;;;;;;;5010824;28;20700;-74
2022/09/09 03:25:00;;;;;;;1.53;1.53;;;;;;;;;;4978986;28;20593;-72
2022/09/09 03:27:26;;;;;;;1.27;1.27;;;;;;;;;;4991698;28;20877;-73
2022/09/09 03:29:52;;;;;;;1.30;1.30;;;;;;;;;;4990675;28;20958;-72
2022/09/09 03:32:18;;;;;;;1.20;1.20;;;;;;;;;;4996185;28;20220;-73
2022/09/09 03:34:44;;;;;;;1.20;1.20;;;;;;;;;;5009433;28;20286;-73
2022/09/09 03:37:10;;;;;;;1.23;1.23;;;;;;;;;;5006289;28;20689;-73
2022/09/09 03:39:36;;;;;;;1.30;1.30;;;;;;;;;;5001518;28;20696;-73
2022/09/09 03:42:05;;;;;;;1.00;1.00;;;;;;;;;;4986573;28;20229;-73
2022/09/09 03:44:31;;;;;;;1.10;1.10;;;;;;;;;;5006299;28;20240;-73
2022/09/09 03:47:00;;;;;;;1.27;1.27;;;;;;;;;;4997013;28;20216;-72
2022/09/09 03:49:28;;;;;;;1.77;1.70;;;;;;;;;;5008628;28;20220;-73
2022/09/09 03:51:54;;;;;;;1.07;1.07;;;;;;;;;;4988059;28;20218;-73
2022/09/09 03:54:20;;;;;;;1.20;1.20;;;;;;;;;;4998592;28;20588;-73
2022/09/09 03:56:46;;;;;;;1.30;1.30;;;;;;;;;;4994411;28;20647;-72
2022/09/09 03:59:12;;;;;;;1.00;1.00;;;;;;;;;;4993460;28;20568;-74
2022/09/09 04:01:37;;;;;;;1.00;1.00;;;;;;;;;;5000588;28;21010;-73
2022/09/09 04:04:03;;;;;;;1.20;1.20;;;;;;;;;;4993247;28;20216;-73
2022/09/09 04:06:30;;;;;;;1.50;1.50;;;;;;;;;;4978437;28;20237;-73
2022/09/09 04:08:56;;;;;;;1.00;1.00;;;;;;;;;;5006675;28;20231;-74
2022/09/09 04:11:22;;;;;;;1.00;1.00;;;;;;;;;;4999305;28;20223;-73
2022/09/09 04:13:49;;;;;;;1.00;1.00;;;;;;;;;;4996251;28;20339;-74
2022/09/09 04:16:15;;;;;;;2.07;1.97;;;;;;;;;;4974792;28;20216;-73
2022/09/09 04:18:41;;;;;;;1.50;1.50;;;;;;;;;;4963852;28;20236;-72
2022/09/09 04:21:07;;;;;;;1.40;1.40;;;;;;;;;;4991028;28;20214;-74
2022/09/09 04:23:34;;;;;;;1.20;1.20;;;;;;;;;;4963024;28;20221;-73
2022/09/09 04:26:00;;;;;;;1.30;1.30;;;;;;;;;;5001829;28;20247;-73
2022/09/09 04:28:27;;;;;;;1.30;1.30;;;;;;;;;;4972292;28;21496;-72
2022/09/09 04:30:53;;;;;;;1.23;1.23;;;;;;;;;;4977527;28;20243;-73
2022/09/09 04:33:19;;;;;;;1.40;1.40;;;;;;;;;;4996449;28;20698;-73
2022/09/09 04:35:49;;;;;;;1.50;1.50;;;;;;;;;;4982462;28;20316;-73
2022/09/09 04:38:15;;;;;;;1.70;1.70;;;;;;;;;;4996150;28;20216;-73
2022/09/09 04:40:47;;;;;;;2.00;1.90;;;;;;;;;;4977763;28;20274;-72
2022/09/09 04:43:14;;;;;;;1.53;1.53;;;;;;;;;;5003298;28;20228;-73
2022/09/09 04:45:40;;;;;;;1.30;1.30;;;;;;;;;;4982411;28;20633;-73
2022/09/09 04:48:06;;;;;;;1.37;1.37;;;;;;;;;;4973429;28;20824;-73
2022/09/09 04:50:32;;;;;;;1.37;1.37;;;;;;;;;;4995765;28;20231;-73
2022/09/09 04:53:02;;;;;;;0.70;0.70;;;;;;;;;;5004905;28;20232;-72
2022/09/09 04:55:28;;;;;;;0.80;0.80;;;;;;;;;;4996432;28;20230;-73
2022/09/09 04:57:54;;;;;;;0.67;0.67;;;;;;;;;;4985534;28;20224;-72
2022/09/09 05:00:20;;;;;;;0.70;0.70;;;;;;;;;;4994490;28;20598;-75
2022/09/09 05:02:47;;;;;;;0.67;0.67;;;;;;;;;;4981049;28;20239;-74
2022/09/09 05:05:13;;;;;;;0.70;0.70;;;;;;;;;;5003794;28;20767;-72
2022/09/09 05:07:39;;;;;;;0.70;0.70;;;;;;;;;;5011779;28;20234;-72
2022/09/09 05:10:05;;;;;;;0.70;0.70;;;;;;;;;;5019647;28;20750;-72
2022/09/09 05:12:31;;;;;;;0.70;0.70;;;;;;;;;;5022562;28;20211;-74
2022/09/09 05:14:57;;;;;;;0.70;0.70;;;;;;;;;;5016341;28;20223;-73
2022/09/09 05:17:24;;;;;;;0.67;0.67;;;;;;;;;;4995755;28;20227;-76
2022/09/09 05:19:50;;;;;;;0.70;0.70;;;;;;;;;;5020391;28;20235;-72
2022/09/09 05:22:22;;;;;;;0.90;0.90;;;;;;;;;;5030260;28;20220;-73
2022/09/09 05:24:50;;;;;;;0.60;0.60;;;;;;;;;;5030098;28;20696;-73
2022/09/09 05:27:16;;;;;;;0.70;0.70;;;;;;;;;;5019516;28;20287;-72
2022/09/09 05:29:44;;;;;;;0.73;0.73;;;;;;;;;;5041127;28;20275;-73
2022/09/09 05:32:10;;;;;;;0.60;0.60;;;;;;;;;;5019709;28;20223;-73
2022/09/09 05:34:37;;;;;;;0.67;0.67;;;;;;;;;;5031872;28;20236;-74
2022/09/09 05:37:04;;;;;;;0.70;0.70;;;;;;;;;;5042476;28;20234;-74
2022/09/09 05:39:30;;;;;;;0.70;0.70;;;;;;;;;;5019677;28;20685;-74
2022/09/09 05:41:56;;;;;;;0.60;0.60;;;;;;;;;;5027231;28;20219;-75
2022/09/09 05:44:24;;;;;;;0.60;0.60;;;;;;;;;;5042799;28;20211;-76
2022/09/09 05:46:50;;;;;;;0.80;0.80;;;;;;;;;;5035566;28;20234;-73
2022/09/09 05:49:16;;;;;;;0.73;0.73;;;;;;;;;;5029909;28;20220;-76
2022/09/09 05:51:44;;;;;;;0.60;0.60;;;;;;;;;;5035182;28;20232;-76
2022/09/09 05:54:10;;;;;;;0.60;0.60;;;;;;;;;;5042576;28;20234;-76
2022/09/09 05:56:35;;;;;;;0.70;0.70;;;;;;;;;;5029733;28;20885;-74
2022/09/09 05:59:01;;;;;;;0.70;0.70;;;;;;;;;;5039163;28;20603;-73
2022/09/09 06:01:29;;;;;;;0.80;0.80;;;;;;;;;;5025909;28;20234;-74
2022/09/09 06:03:55;;;;;;;0.60;0.60;;;;;;;;;;5026553;28;20232;-77
2022/09/09 06:06:25;;;;;;;0.70;0.70;;;;;;;;;;5028877;28;20752;-75
2022/09/09 06:08:52;;;;;;;0.60;0.60;;;;;;;;;;5036861;28;20723;-73
2022/09/09 06:11:18;;;;;;;0.60;0.60;;;;;;;;;;5041162;28;20219;-74
2022/09/09 06:13:44;;;;;;;0.60;0.60;;;;;;;;;;5025085;28;20702;-75
2022/09/09 06:16:20;;;;;;;0.70;0.70;;;;;;;;;;5039830;28;20223;-74
2022/09/09 06:18:48;;;;;;;0.60;0.60;;;;;;;;;;5031747;28;21032;-75
2022/09/09 06:21:18;;;;;;;0.60;0.60;;;;;;;;;;5030163;28;20243;-74
2022/09/09 06:23:44;;;;;;;0.60;0.60;;;;;;;;;;5012430;28;20596;-78
2022/09/09 06:26:13;;;;;;;0.60;0.60;;;;;;;;;;5023444;28;20221;-75
2022/09/09 06:28:39;;;;;;;0.80;0.80;;;;;;;;;;5041937;28;20223;-74
2022/09/09 06:31:06;;;;;;;0.70;0.70;;;;;;;;;;5034133;28;20249;-74
2022/09/09 06:33:34;;;;;;;0.80;0.80;;;;;;;;;;5033429;28;20322;-74
2022/09/09 06:36:00;;;;;;;0.80;0.80;;;;;;;;;;5031736;28;20273;-75
2022/09/09 06:38:26;;;;;;;0.80;0.80;;;;;;;;;;5022587;28;20255;-76
2022/09/09 06:40:54;;;;;;;0.70;0.70;;;;;;;;;;5042114;28;20228;-74
2022/09/09 06:43:20;;;;;;;0.80;0.80;;;;;;;;;;5042600;28;20212;-76
2022/09/09 06:45:53;;;;;;;0.60;0.60;;;;;;;;;;5029719;28;20216;-74
2022/09/09 06:48:19;;;;;;;0.80;0.80;;;;;;;;;;5032182;28;20227;-77
2022/09/09 06:50:45;;;;;;;0.80;0.80;;;;;;;;;;5029391;28;20216;-75
2022/09/09 06:53:11;;;;;;;0.90;0.90;;;;;;;;;;5045393;28;20223;-75
2022/09/09 06:55:37;;;;;;;0.70;0.70;;;;;;;;;;5027348;28;20227;-75
2022/09/09 06:58:02;;;;;;;0.70;0.70;;;;;;;;;;5042089;28;20246;-75
2022/09/09 07:00:29;;;;;;;0.90;0.90;;;;;;;;;;5026067;28;20689;-74
2022/09/09 07:02:55;;;;;;;0.90;0.90;;;;;;;;;;5043721;28;20315;-75
2022/09/09 07:05:21;;;;;;;0.90;0.90;;;;;;;;;;5026646;28;20306;-76
2022/09/09 07:07:47;;;;;;;0.90;0.90;;;;;;;;;;5039271;28;20760;-76
2022/09/09 07:10:13;;;;;;;0.80;0.80;;;;;;;;;;5041563;28;20227;-76
2022/09/09 07:12:39;;;;;;;0.80;0.80;;;;;;;;;;5041141;28;20702;-75
2022/09/09 07:15:06;;;;;;;0.90;0.90;;;;;;;;;;5040687;28;20227;-75
2022/09/09 07:17:31;;;;;;;0.90;0.90;;;;;;;;;;5036933;28;20293;-77
2022/09/09 07:19:57;;;;;;;0.80;0.80;;;;;;;;;;5023037;28;20642;-75
2022/09/09 07:22:24;;;;;;;0.90;0.90;;;;;;;;;;5026599;28;20219;-76
2022/09/09 07:24:50;;;;;;;0.90;0.90;;;;;;;;;;5039570;28;20219;-77
2022/09/09 07:27:16;;;;;;;0.90;0.90;;;;;;;;;;5024237;28;20277;-76
2022/09/09 07:29:42;;;;;;;0.90;0.90;;;;;;;;;;5032812;28;20227;-78
2022/09/09 07:32:08;;;;;;;0.90;0.90;;;;;;;;;;5021301;28;20662;-76
2022/09/09 07:34:34;;;;;;;1.00;1.00;;;;;;;;;;5035268;28;21334;-77
2022/09/09 07:37:00;;;;;;;1.00;1.00;;;;;;;;;;5037013;28;20396;-76
2022/09/09 07:39:26;;;;;;;0.87;0.87;;;;;;;;;;5021541;28;20350;-75
2022/09/09 07:41:54;;;;;;;0.90;0.90;;;;;;;;;;5028602;28;20210;-77
2022/09/09 07:44:24;;;;;;;1.00;1.00;;;;;;;;;;5030179;28;20224;-76
2022/09/09 07:46:50;;;;;;;0.87;0.87;;;;;;;;;;5023892;28;21197;-75
2022/09/09 07:49:17;;;;;;;0.70;0.70;;;;;;;;;;5025042;28;20219;-79
2022/09/09 07:51:44;;;;;;;1.00;1.00;;;;;;;;;;5032635;28;20613;-75
2022/09/09 07:54:10;;;;;;;0.80;0.80;;;;;;;;;;5032121;28;20224;-75
2022/09/09 07:56:37;;;;;;;0.90;0.90;;;;;;;;;;5043156;28;20204;-76
2022/09/09 07:59:06;;;;;;;0.83;0.83;;;;;;;;;;5027353;28;20263;-76
2022/09/09 08:01:32;;;;;;;0.70;0.70;;;;;;;;;;5043480;28;20227;-73
2022/09/09 08:04:00;;;;;;;0.80;0.80;;;;;;;;;;5019424;28;20227;-74
2022/09/09 08:06:27;;;;;;;0.80;0.80;;;;;;;;;;5024606;28;20216;-77
2022/09/09 08:08:54;;;;;;;0.70;0.70;;;;;;;;;;5018056;28;20584;-77
2022/09/09 08:11:20;;;;;;;0.80;0.80;;;;;;;;;;5030650;28;21101;-76
2022/09/09 08:13:47;;;;;;;0.80;0.80;;;;;;;;;;5020195;28;20274;-76
2022/09/09 08:16:14;;;;;;;0.80;0.80;;;;;;;;;;5034868;28;20769;-75
2022/09/09 08:18:40;;;;;;;0.90;0.90;;;;;;;;;;5017351;28;20758;-76
2022/09/09 08:21:13;;;;;;;0.90;0.90;;;;;;;;;;5025262;28;20212;-74
2022/09/09 08:23:42;;;;;;;1.15;1.15;;;;;;;;;;5027373;28;20306;-76
2022/09/09 08:26:12;;;;;;;0.95;0.95;;;;;;;;;;5045798;28;20204;-75
2022/09/09 08:28:38;;;;;;;1.00;1.00;;;;;;;;;;5035676;28;20192;-75
2022/09/09 08:31:07;;;;;;;1.00;1.00;;;;;;;;;;5039129;28;20247;-77
2022/09/09 08:33:33;;;;;;;0.90;0.90;;;;;;;;;;5039584;28;20693;-75
2022/09/09 08:35:59;;;;;;;0.90;0.90;;;;;;;;;;5023045;28;20211;-75
2022/09/09 08:38:26;;;;;;;0.90;0.90;;;;;;;;;;5021559;28;20211;-76
2022/09/09 08:40:53;;;;;;;0.90;0.90;;;;;;;;;;5042728;28;20219;-78
2022/09/09 08:43:19;;;;;;;1.00;1.00;;;;;;;;;;5024386;28;20709;-75
2022/09/09 08:45:56;;;;;;;0.80;0.80;;;;;;;;;;5010359;28;20233;-76
2022/09/09 08:48:22;;;;;;;0.90;0.90;;;;;;;;;;5033641;28;20283;-77
2022/09/09 08:50:48;;;;;;;0.90;0.90;;;;;;;;;;5036247;28;20218;-77
2022/09/09 08:53:22;;;;;;;0.90;0.90;;;;;;;;;;5026709;28;20223;-77
2022/09/09 08:55:55;;;;;;;0.80;0.80;;;;;;;;;;5037441;28;20347;-76
2022/09/09 08:58:22;;;;;;;0.80;0.80;;;;;;;;;;5026074;28;20285;-75
2022/09/09 09:00:47;;;;;;;0.90;0.90;;;;;;;;;;5020199;28;20233;-77
2022/09/09 09:03:23;;;;;;;1.10;1.10;;;;;;;;;;5038863;28;20232;-77
2022/09/09 09:06:02;;;;;;;0.98;0.98;;;;;;;;;;5039291;28;20214;-75
2022/09/09 09:08:33;;;;;;;0.90;0.90;;;;;;;;;;5037468;28;20570;-75
2022/09/09 09:11:02;;;;;;;0.80;0.80;;;;;;;;;;5041941;28;20231;-74
2022/09/09 09:13:36;;;;;;;0.90;0.90;;;;;;;;;;5048052;28;20609;-74
2022/09/09 09:16:04;;;;;;;1.00;1.00;;;;;;;;;;5011281;28;21731;-76
2022/09/09 09:18:30;;;;;;;0.90;0.90;;;;;;;;;;5021278;28;20226;-73
2022/09/09 09:21:04;;;;;;;0.90;0.90;;;;;;;;;;5033096;28;20793;-75
2022/09/09 09:23:33;;;;;;;0.90;0.90;;;;;;;;;;5036730;28;20231;-74
2022/09/09 09:26:01;;;;;;;0.90;0.90;;;;;;;;;;5024572;28;20902;-75
2022/09/09 09:28:29;;;;;;;0.80;0.80;;;;;;;;;;5043927;28;20255;-78
2022/09/09 09:31:01;;;;;;;1.00;1.00;;;;;;;;;;5042765;28;20629;-78
2022/09/09 09:33:29;;;;;;;0.88;0.88;;;;;;;;;;5024276;28;20224;-78
2022/09/09 09:35:55;;;;;;;1.00;1.00;;;;;;;;;;5011343;28;20219;-77
2022/09/09 09:38:25;;;;;;;0.88;0.88;;;;;;;;;;5036234;28;20271;-75
2022/09/09 09:40:57;;;;;;;1.00;1.00;;;;;;;;;;5035794;28;20310;-75
2022/09/09 09:43:40;;;;;;;1.00;1.00;;;;;;;;;;5031192;28;20216;-75
2022/09/09 09:46:06;;;;;;;0.90;0.90;;;;;;;;;;5019147;28;20315;-74
2022/09/09 09:48:32;;;;;;;0.95;0.95;;;;;;;;;;5036260;28;20231;-76
2022/09/09 09:50:58;;;;;;;1.00;1.00;;;;;;;;;;5029831;28;20265;-75
2022/09/09 09:53:28;;;;;;;0.90;0.90;;;;;;;;;;5037545;28;20246;-75
2022/09/09 09:55:54;;;;;;;0.70;0.70;;;;;;;;;;5024933;28;20216;-76
2022/09/09 09:58:20;;;;;;;0.90;0.90;;;;;;;;;;5042701;28;20257;-75
2022/09/09 10:00:50;;;;;;;1.10;1.10;;;;;;;;;;5031819;28;20239;-76
2022/09/09 10:03:24;;;;;;;1.00;1.00;;;;;;;;;;5024411;28;20236;-78
2022/09/09 10:05:51;;;;;;;1.00;1.00;;;;;;;;;;5029855;28;20219;-75
2022/09/09 10:08:17;;;;;;;1.00;1.00;;;;;;;;;;5020731;28;20246;-75
2022/09/09 10:10:52;;;;;;;1.10;1.10;;;;;;;;;;5034988;28;20219;-75
2022/09/09 10:13:21;;;;;;;1.00;1.00;;;;;;;;;;5037090;28;20226;-77
2022/09/09 10:16:06;;;;;;;0.90;0.90;;;;;;;;;;5033658;28;20545;-75
2022/09/09 10:18:51;;;;;;;0.90;0.90;;;;;;;;;;5020549;28;20242;-77
2022/09/09 10:21:22;;;;;;;0.93;0.93;;;;;;;;;;5024997;28;20227;-73
2022/09/09 10:23:53;;;;;;;0.90;0.90;;;;;;;;;;5035013;28;20212;-77
2022/09/09 10:26:35;;;;;;;1.02;1.02;;;;;;;;;;5012041;28;20222;-77
2022/09/09 10:29:11;;;;;;;1.75;1.70;;;;;;;;;;5024759;28;20407;-75
2022/09/09 10:31:46;;;;;;;1.60;1.60;;;;;;;;;;5043786;28;20254;-75
2022/09/09 10:34:20;;;;;;;1.70;1.70;;;;;;;;;;5035684;28;20214;-76
2022/09/09 10:36:48;;;;;;;1.50;1.50;;;;;;;;;;5029043;28;20209;-78
2022/09/09 10:39:19;;;;;;;1.40;1.40;;;;;;;;;;5020033;28;20321;-76
2022/09/09 10:41:51;;;;;;;1.40;1.40;;;;;;;;;;5002202;28;20505;-75
2022/09/09 10:44:18;;;;;;;1.70;1.70;;;;;;;;;;5001480;28;20311;-75
2022/09/09 10:47:04;;;;;;;1.00;1.00;;;;;;;;;;5015076;28;20582;-76
2022/09/09 10:49:33;;;;;;;0.90;0.90;;;;;;;;;;5030096;28;20235;-77
2022/09/09 10:52:05;;;;;;;0.90;0.90;;;;;;;;;;5037726;28;20230;-78
2022/09/09 10:54:31;;;;;;;0.95;0.95;;;;;;;;;;5015112;28;20226;-76
2022/09/09 10:56:59;;;;;;;0.90;0.90;;;;;;;;;;5031813;28;20731;-78
2022/09/09 10:59:27;;;;;;;0.90;0.90;;;;;;;;;;5003909;28;20245;-77
2022/09/09 11:01:54;;;;;;;0.90;0.90;;;;;;;;;;5025059;28;26059;-76
2022/09/09 11:04:23;;;;;;;0.90;0.90;;;;;;;;;;5024511;28;20603;-76
2022/09/09 11:06:52;;;;;;;0.90;0.90;;;;;;;;;;5039965;28;20225;-71
2022/09/09 11:09:19;;;;;;;0.90;0.90;;;;;;;;;;5030500;28;20207;-72
2022/09/09 11:11:53;;;;;;;0.90;0.90;;;;;;;;;;5024677;28;20273;-72
2022/09/09 11:14:25;;;;;;;0.90;0.90;;;;;;;;;;5007003;28;20272;-72
2022/09/09 11:16:52;;;;;;;0.95;0.95;;;;;;;;;;5014461;28;20245;-74
2022/09/09 11:19:18;;;;;;;0.93;0.93;;;;;;;;;;5007530;28;20238;-76
2022/09/09 11:21:47;;;;;;;0.90;0.90;;;;;;;;;;5040013;28;20204;-76
2022/09/09 11:24:24;;;;;;;0.98;0.98;;;;;;;;;;5031215;28;20582;-76
2022/09/09 11:26:59;;;;;;;0.90;0.90;;;;;;;;;;5008293;28;20232;-77
2022/09/09 11:29:37;;;;;;;0.98;0.98;;;;;;;;;;5021943;28;20273;-77
2022/09/09 11:32:21;;;;;;;0.88;0.88;;;;;;;;;;5027918;28;20342;-77
2022/09/09 11:34:51;;;;;;;0.90;0.90;;;;;;;;;;5025828;28;20235;-76
2022/09/09 11:37:28;;;;;;;0.90;0.90;;;;;;;;;;5022535;28;20631;-76
2022/09/09 11:39:58;;;;;;;0.82;0.82;;;;;;;;;;5012487;28;20232;-75
2022/09/09 11:42:24;;;;;;;0.90;0.90;;;;;;;;;;5012040;28;20310;-75
2022/09/09 11:44:50;;;;;;;0.93;0.93;;;;;;;;;;5010555;28;20592;-76
2022/09/09 11:47:19;;;;;;;0.90;0.90;;;;;;;;;;5015323;28;20219;-75
2022/09/09 11:49:45;;;;;;;0.90;0.90;;;;;;;;;;5032566;28;20335;-77
2022/09/09 11:52:12;;;;;;;0.90;0.90;;;;;;;;;;5016763;28;20588;-77
2022/09/09 11:54:45;;;;;;;0.90;0.90;;;;;;;;;;5030436;28;20674;-74
2022/09/09 11:57:25;;;;;;;0.90;0.90;;;;;;;;;;5012478;28;20228;-75
2022/09/09 11:59:54;;;;;;;0.95;0.95;;;;;;;;;;5003250;28;20276;-78
2022/09/09 12:02:24;;;;;;;1.00;1.00;;;;;;;;;;5022051;28;20238;-76
2022/09/09 12:04:57;;;;;;;1.00;1.00;;;;;;;;;;5011005;28;20653;-76
2022/09/09 12:07:29;;;;;;;0.90;0.90;;;;;;;;;;5025679;28;20700;-75
2022/09/09 12:10:03;;;;;;;0.80;0.80;;;;;;;;;;5020071;28;20599;-75
2022/09/09 12:12:36;;;;;;;0.80;0.80;;;;;;;;;;5015041;28;20229;-75
2022/09/09 12:15:08;;;;;;;0.90;0.90;;;;;;;;;;5024980;28;20274;-75
2022/09/09 12:17:39;;;;;;;0.80;0.80;;;;;;;;;;5028469;28;20629;-76
2022/09/09 12:20:09;;;;;;;0.70;0.70;;;;;;;;;;5007521;28;20229;-75
2022/09/09 12:22:42;;;;;;;0.65;0.65;;;;;;;;;;5032401;28;20224;-78
2022/09/09 12:25:11;;;;;;;0.80;0.80;;;;;;;;;;5016281;28;20219;-77
2022/09/09 12:27:41;;;;;;;0.80;0.80;;;;;;;;;;5019692;28;20574;-76
2022/09/09 12:30:11;;;;;;;0.90;0.90;;;;;;;;;;5018990;28;20254;-76
2022/09/09 12:32:37;;;;;;;0.90;0.90;;;;;;;;;;5022907;28;20250;-75
2022/09/09 12:35:05;;;;;;;1.00;1.00;;;;;;;;;;5026231;28;20208;-75
2022/09/09 12:37:42;;;;;;;0.95;0.95;;;;;;;;;;5021902;28;20219;-74
2022/09/09 12:40:21;;;;;;;0.60;0.60;;;;;;;;;;5045767;28;20301;-77
2022/09/09 12:42:47;;;;;;;0.60;0.60;;;;;;;;;;5004489;28;20223;-77
2022/09/09 12:45:31;;;;;;;0.70;0.70;;;;;;;;;;5028238;28;20271;-75
2022/09/09 12:48:01;;;;;;;0.70;0.70;;;;;;;;;;5032653;28;20232;-75
2022/09/09 12:50:30;;;;;;;0.70;0.70;;;;;;;;;;5016100;28;20256;-75
2022/09/09 12:52:58;;;;;;;0.70;0.70;;;;;;;;;;5019910;28;20214;-73
2022/09/09 12:55:34;;;;;;;0.60;0.60;;;;;;;;;;5013576;28;20211;-73
2022/09/09 12:58:04;;;;;;;0.70;0.70;;;;;;;;;;5019774;28;20296;-75
2022/09/09 13:00:31;;;;;;;0.95;0.95;;;;;;;;;;5014398;28;20525;-75
2022/09/09 13:02:58;;;;;;;0.95;0.95;;;;;;;;;;5019047;28;20239;-77
2022/09/09 13:05:25;;;;;;;0.90;0.90;;;;;;;;;;5027782;28;20215;-77
2022/09/09 13:07:51;;;;;;;1.00;1.00;;;;;;;;;;5006102;28;20278;-77
2022/09/09 13:10:26;;;;;;;1.00;1.00;;;;;;;;;;5032150;28;20215;-74
2022/09/09 13:12:52;;;;;;;0.90;0.90;;;;;;;;;;5004570;28;20219;-74
2022/09/09 13:15:26;;;;;;;0.90;0.90;;;;;;;;;;5008376;28;20227;-76
2022/09/09 13:17:57;;;;;;;1.08;1.08;;;;;;;;;;5022100;28;20225;-76
2022/09/09 13:20:23;;;;;;;1.00;1.00;;;;;;;;;;5023876;28;20219;-74
2022/09/09 13:22:50;;;;;;;1.02;1.02;;;;;;;;;;5037343;28;20739;-74
2022/09/09 13:25:20;;;;;;;0.90;0.90;;;;;;;;;;5014054;28;20216;-77
2022/09/09 13:28:00;;;;;;;1.00;1.00;;;;;;;;;;4996069;28;20608;-73
2022/09/09 13:30:26;;;;;;;1.00;1.00;;;;;;;;;;5009920;28;20243;-74
2022/09/09 13:33:02;;;;;;;1.00;1.00;;;;;;;;;;5026828;28;21227;-77
2022/09/09 13:35:27;;;;;;;1.08;1.08;;;;;;;;;;5034284;28;20277;-78
2022/09/09 13:37:53;;;;;;;0.90;0.90;;;;;;;;;;5033664;28;20728;-76
2022/09/09 13:40:21;;;;;;;1.00;1.00;;;;;;;;;;5008130;28;20228;-72
2022/09/09 13:42:47;;;;;;;1.00;1.00;;;;;;;;;;5001343;28;21237;-75
2022/09/09 13:45:23;;;;;;;1.17;1.17;;;;;;;;;;5030075;28;20216;-73
2022/09/09 13:47:52;;;;;;;0.90;0.90;;;;;;;;;;5018741;28;20211;-77
2022/09/09 13:50:28;;;;;;;1.20;1.20;;;;;;;;;;5015107;28;20224;-73
2022/09/09 13:52:55;;;;;;;1.00;1.00;;;;;;;;;;5041289;28;20238;-71
2022/09/09 13:55:22;;;;;;;1.00;1.00;;;;;;;;;;5013991;28;20211;-70
2022/09/09 13:57:54;;;;;;;1.10;1.10;;;;;;;;;;5016093;28;20259;-72
2022/09/09 14:00:21;;;;;;;1.05;1.05;;;;;;;;;;5021759;28;20236;-72
2022/09/09 14:02:47;;;;;;;1.00;1.00;;;;;;;;;;5015399;28;20285;-71
2022/09/09 14:05:14;;;;;;;0.90;0.90;;;;;;;;;;5040054;28;20216;-72
2022/09/09 14:07:41;;;;;;;1.08;1.08;;;;;;;;;;5037501;28;20768;-73
2022/09/09 14:10:07;;;;;;;1.02;1.02;;;;;;;;;;5025329;28;20254;-71
2022/09/09 14:12:33;;;;;;;1.00;1.00;;;;;;;;;;5018767;28;20248;-71
2022/09/09 14:14:59;;;;;;;1.00;1.00;;;;;;;;;;5044820;28;20298;-71
2022/09/09 14:17:29;;;;;;;1.00;1.00;;;;;;;;;;5026310;28;20868;-70
2022/09/09 14:19:55;;;;;;;0.95;0.95;;;;;;;;;;5019166;28;20227;-72
2022/09/09 14:22:21;;;;;;;1.00;1.00;;;;;;;;;;5025016;28;20310;-72
2022/09/09 14:24:47;;;;;;;1.00;1.00;;;;;;;;;;5013876;28;20211;-72
2022/09/09 14:27:13;;;;;;;1.00;1.00;;;;;;;;;;4979319;28;20998;-73
2022/09/09 14:29:39;;;;;;;0.95;0.95;;;;;;;;;;5015214;28;20269;-73
2022/09/09 14:32:05;;;;;;;1.08;1.08;;;;;;;;;;5034101;28;20675;-72
2022/09/09 14:34:35;;;;;;;1.00;1.00;;;;;;;;;;5033702;28;20307;-75
2022/09/09 14:37:01;;;;;;;0.80;0.80;;;;;;;;;;5034986;28;21590;-72
2022/09/09 14:39:26;;;;;;;0.60;0.60;;;;;;;;;;5017981;28;20313;-74
2022/09/09 14:41:52;;;;;;;0.60;0.60;;;;;;;;;;5017250;28;20277;-74
2022/09/09 14:44:18;;;;;;;0.70;0.70;;;;;;;;;;5013698;28;20216;-73
2022/09/09 14:46:44;;;;;;;0.60;0.60;;;;;;;;;;5010253;28;20646;-73
2022/09/09 14:49:10;;;;;;;0.70;0.70;;;;;;;;;;4993734;28;20307;-75
2022/09/09 14:51:36;;;;;;;0.70;0.70;;;;;;;;;;5025882;28;20262;-73
2022/09/09 14:54:02;;;;;;;0.68;0.68;;;;;;;;;;5006192;28;26154;-73